sensor_id;sensor_type;location;lat;lon;timestamp;temperature;humidity
74657;DHT22;63185;45.642;13.764;2023-07-13T00:01:16;29.20;57.10
74657;DHT22;63185;45.642;13.764;2023-07-13T00:03:43;29.20;56.40
74657;DHT22;63185;45.642;13.764;2023-07-13T00:06:09;29.20;56.60
74657;DHT22;63185;45.642;13.764;2023-07-13T00:08:35;29.20;55.80
74657;DHT22;63185;45.642;13.764;2023-07-13T00:11:02;29.10;56.00
74657;DHT22;63185;45.642;13.764;2023-07-13T00:13:29;29.10;55.60
74657;DHT22;63185;45.642;13.764;2023-07-13T00:15:56;29.10;55.50
74657;DHT22;63185;45.642;13.764;2023-07-13T00:18:22;29.20;55.60
74657;DHT22;63185;45.642;13.764;2023-07-13T00:20:47;29.10;54.80
74657;DHT22;63185;45.642;13.764;2023-07-13T00:23:14;29.00;54.30
74657;DHT22;63185;45.642;13.764;2023-07-13T00:25:39;29.10;54.40
74657;DHT22;63185;45.642;13.764;2023-07-13T00:28:05;29.20;54.60
74657;DHT22;63185;45.642;13.764;2023-07-13T00:30:31;29.20;53.90
74657;DHT22;63185;45.642;13.764;2023-07-13T00:32:57;29.20;53.90
74657;DHT22;63185;45.642;13.764;2023-07-13T00:35:23;29.30;53.90
74657;DHT22;63185;45.642;13.764;2023-07-13T00:37:48;29.30;53.40
74657;DHT22;63185;45.642;13.764;2023-07-13T00:40:15;29.30;53.20
74657;DHT22;63185;45.642;13.764;2023-07-13T00:42:42;29.40;53.90
74657;DHT22;63185;45.642;13.764;2023-07-13T00:47:43;29.20;55.80
74657;DHT22;63185;45.642;13.764;2023-07-13T00:50:12;29.30;55.70
74657;DHT22;63185;45.642;13.764;2023-07-13T00:52:43;29.20;54.60
74657;DHT22;63185;45.642;13.764;2023-07-13T00:55:12;29.20;54.50
74657;DHT22;63185;45.642;13.764;2023-07-13T00:57:38;29.20;55.00
74657;DHT22;63185;45.642;13.764;2023-07-13T01:00:05;29.20;55.20
74657;DHT22;63185;45.642;13.764;2023-07-13T01:02:39;29.00;55.10
74657;DHT22;63185;45.642;13.764;2023-07-13T01:07:37;28.80;56.00
74657;DHT22;63185;45.642;13.764;2023-07-13T01:10:04;28.50;58.20
74657;DHT22;63185;45.642;13.764;2023-07-13T01:12:29;26.90;61.70
74657;DHT22;63185;45.642;13.764;2023-07-13T01:15:00;26.90;61.40
74657;DHT22;63185;45.642;13.764;2023-07-13T01:17:27;26.50;64.60
74657;DHT22;63185;45.642;13.764;2023-07-13T01:19:53;26.50;65.10
74657;DHT22;63185;45.642;13.764;2023-07-13T01:22:19;26.60;64.10
74657;DHT22;63185;45.642;13.764;2023-07-13T01:24:51;26.70;64.10
74657;DHT22;63185;45.642;13.764;2023-07-13T01:27:20;26.30;65.10
74657;DHT22;63185;45.642;13.764;2023-07-13T01:29:47;26.20;65.30
74657;DHT22;63185;45.642;13.764;2023-07-13T01:32:23;26.40;63.90
74657;DHT22;63185;45.642;13.764;2023-07-13T01:34:52;26.40;64.10
74657;DHT22;63185;45.642;13.764;2023-07-13T01:37:20;26.60;63.50
74657;DHT22;63185;45.642;13.764;2023-07-13T01:39:46;26.70;62.80
74657;DHT22;63185;45.642;13.764;2023-07-13T01:42:13;26.70;62.40
74657;DHT22;63185;45.642;13.764;2023-07-13T01:44:38;26.80;62.20
74657;DHT22;63185;45.642;13.764;2023-07-13T01:47:05;26.80;62.10
74657;DHT22;63185;45.642;13.764;2023-07-13T01:49:31;26.90;62.00
74657;DHT22;63185;45.642;13.764;2023-07-13T01:51:56;27.00;61.90
74657;DHT22;63185;45.642;13.764;2023-07-13T01:54:22;27.10;61.70
74657;DHT22;63185;45.642;13.764;2023-07-13T01:56:48;27.20;61.40
74657;DHT22;63185;45.642;13.764;2023-07-13T01:59:14;27.30;61.30
74657;DHT22;63185;45.642;13.764;2023-07-13T02:01:40;27.40;61.00
74657;DHT22;63185;45.642;13.764;2023-07-13T02:04:05;27.40;61.10
74657;DHT22;63185;45.642;13.764;2023-07-13T02:06:31;27.40;60.50
74657;DHT22;63185;45.642;13.764;2023-07-13T02:08:58;27.40;60.40
74657;DHT22;63185;45.642;13.764;2023-07-13T02:11:23;27.50;60.10
74657;DHT22;63185;45.642;13.764;2023-07-13T02:13:50;27.50;60.00
74657;DHT22;63185;45.642;13.764;2023-07-13T02:16:16;27.50;60.10
74657;DHT22;63185;45.642;13.764;2023-07-13T02:18:42;27.50;60.30
74657;DHT22;63185;45.642;13.764;2023-07-13T02:21:07;27.50;60.30
74657;DHT22;63185;45.642;13.764;2023-07-13T02:23:33;27.50;60.00
74657;DHT22;63185;45.642;13.764;2023-07-13T02:26:00;27.50;59.90
74657;DHT22;63185;45.642;13.764;2023-07-13T02:28:28;27.50;60.00
74657;DHT22;63185;45.642;13.764;2023-07-13T02:30:53;27.50;60.10
74657;DHT22;63185;45.642;13.764;2023-07-13T02:33:19;27.50;60.40
74657;DHT22;63185;45.642;13.764;2023-07-13T02:35:45;27.50;60.40
74657;DHT22;63185;45.642;13.764;2023-07-13T02:38:11;27.50;60.60
74657;DHT22;63185;45.642;13.764;2023-07-13T02:40:36;27.50;60.10
74657;DHT22;63185;45.642;13.764;2023-07-13T02:43:03;27.50;59.90
74657;DHT22;63185;45.642;13.764;2023-07-13T02:45:29;27.50;59.70
74657;DHT22;63185;45.642;13.764;2023-07-13T02:47:55;27.40;60.30
74657;DHT22;63185;45.642;13.764;2023-07-13T02:50:21;27.10;61.90
74657;DHT22;63185;45.642;13.764;2023-07-13T02:52:46;26.70;63.60
74657;DHT22;63185;45.642;13.764;2023-07-13T02:55:12;26.50;64.10
74657;DHT22;63185;45.642;13.764;2023-07-13T02:57:38;26.50;64.00
74657;DHT22;63185;45.642;13.764;2023-07-13T03:00:04;26.60;63.70
74657;DHT22;63185;45.642;13.764;2023-07-13T03:02:32;26.80;63.10
74657;DHT22;63185;45.642;13.764;2023-07-13T03:04:58;27.00;62.80
74657;DHT22;63185;45.642;13.764;2023-07-13T03:07:24;27.00;62.50
74657;DHT22;63185;45.642;13.764;2023-07-13T03:09:55;27.10;62.50
74657;DHT22;63185;45.642;13.764;2023-07-13T03:12:22;27.00;62.60
74657;DHT22;63185;45.642;13.764;2023-07-13T03:14:47;27.00;62.60
74657;DHT22;63185;45.642;13.764;2023-07-13T03:17:13;27.10;62.40
74657;DHT22;63185;45.642;13.764;2023-07-13T03:19:39;27.10;62.40
74657;DHT22;63185;45.642;13.764;2023-07-13T03:22:05;27.10;62.40
74657;DHT22;63185;45.642;13.764;2023-07-13T03:24:33;27.10;62.10
74657;DHT22;63185;45.642;13.764;2023-07-13T03:26:58;27.10;62.20
74657;DHT22;63185;45.642;13.764;2023-07-13T03:29:24;27.10;62.20
74657;DHT22;63185;45.642;13.764;2023-07-13T03:31:50;27.20;61.90
74657;DHT22;63185;45.642;13.764;2023-07-13T03:34:15;27.20;61.90
74657;DHT22;63185;45.642;13.764;2023-07-13T03:36:41;27.10;62.00
74657;DHT22;63185;45.642;13.764;2023-07-13T03:39:07;27.20;62.20
74657;DHT22;63185;45.642;13.764;2023-07-13T03:41:34;27.20;62.10
74657;DHT22;63185;45.642;13.764;2023-07-13T03:44:00;27.20;62.20
74657;DHT22;63185;45.642;13.764;2023-07-13T03:46:25;27.20;62.30
74657;DHT22;63185;45.642;13.764;2023-07-13T03:48:51;27.30;62.20
74657;DHT22;63185;45.642;13.764;2023-07-13T03:51:18;27.20;61.90
74657;DHT22;63185;45.642;13.764;2023-07-13T03:53:45;27.20;61.70
74657;DHT22;63185;45.642;13.764;2023-07-13T03:56:12;27.30;61.90
74657;DHT22;63185;45.642;13.764;2023-07-13T03:58:41;27.30;61.40
74657;DHT22;63185;45.642;13.764;2023-07-13T04:01:09;27.30;61.60
74657;DHT22;63185;45.642;13.764;2023-07-13T04:03:35;27.40;61.50
74657;DHT22;63185;45.642;13.764;2023-07-13T04:06:05;27.40;61.50
74657;DHT22;63185;45.642;13.764;2023-07-13T04:08:34;27.50;61.00
74657;DHT22;63185;45.642;13.764;2023-07-13T04:11:01;27.50;60.80
74657;DHT22;63185;45.642;13.764;2023-07-13T04:13:27;27.50;60.50
74657;DHT22;63185;45.642;13.764;2023-07-13T04:15:53;27.60;60.40
74657;DHT22;63185;45.642;13.764;2023-07-13T04:18:19;27.60;60.10
74657;DHT22;63185;45.642;13.764;2023-07-13T04:20:46;27.60;60.20
74657;DHT22;63185;45.642;13.764;2023-07-13T04:23:13;27.60;59.20
74657;DHT22;63185;45.642;13.764;2023-07-13T04:25:38;27.70;59.60
74657;DHT22;63185;45.642;13.764;2023-07-13T04:28:04;27.70;59.20
74657;DHT22;63185;45.642;13.764;2023-07-13T04:30:30;27.80;59.00
74657;DHT22;63185;45.642;13.764;2023-07-13T04:32:56;27.90;58.90
74657;DHT22;63185;45.642;13.764;2023-07-13T04:35:22;27.90;57.80
74657;DHT22;63185;45.642;13.764;2023-07-13T04:37:49;28.10;58.20
74657;DHT22;63185;45.642;13.764;2023-07-13T04:40:17;28.10;57.60
74657;DHT22;63185;45.642;13.764;2023-07-13T04:42:44;28.20;58.00
74657;DHT22;63185;45.642;13.764;2023-07-13T04:45:11;28.30;58.40
74657;DHT22;63185;45.642;13.764;2023-07-13T04:47:37;28.30;57.90
74657;DHT22;63185;45.642;13.764;2023-07-13T04:50:02;28.30;56.90
74657;DHT22;63185;45.642;13.764;2023-07-13T04:52:28;28.30;57.30
74657;DHT22;63185;45.642;13.764;2023-07-13T04:54:54;28.30;56.90
74657;DHT22;63185;45.642;13.764;2023-07-13T04:57:20;28.40;55.40
74657;DHT22;63185;45.642;13.764;2023-07-13T04:59:45;28.40;54.90
74657;DHT22;63185;45.642;13.764;2023-07-13T05:02:11;28.50;54.20
74657;DHT22;63185;45.642;13.764;2023-07-13T05:04:37;28.60;54.00
74657;DHT22;63185;45.642;13.764;2023-07-13T05:07:03;28.60;53.60
74657;DHT22;63185;45.642;13.764;2023-07-13T05:09:28;28.70;53.40
74657;DHT22;63185;45.642;13.764;2023-07-13T05:11:54;28.70;53.50
74657;DHT22;63185;45.642;13.764;2023-07-13T05:14:20;28.80;52.70
74657;DHT22;63185;45.642;13.764;2023-07-13T05:16:45;28.90;53.20
74657;DHT22;63185;45.642;13.764;2023-07-13T05:19:12;28.80;53.60
74657;DHT22;63185;45.642;13.764;2023-07-13T05:21:37;28.90;53.40
74657;DHT22;63185;45.642;13.764;2023-07-13T05:24:04;28.90;53.20
74657;DHT22;63185;45.642;13.764;2023-07-13T05:26:30;28.90;53.20
74657;DHT22;63185;45.642;13.764;2023-07-13T05:28:56;29.00;52.30
74657;DHT22;63185;45.642;13.764;2023-07-13T05:31:22;29.00;53.20
74657;DHT22;63185;45.642;13.764;2023-07-13T05:33:47;29.10;52.20
74657;DHT22;63185;45.642;13.764;2023-07-13T05:36:13;29.20;51.40
74657;DHT22;63185;45.642;13.764;2023-07-13T05:38:39;29.20;52.00
74657;DHT22;63185;45.642;13.764;2023-07-13T05:41:05;29.20;52.00
74657;DHT22;63185;45.642;13.764;2023-07-13T05:43:31;29.30;51.40
74657;DHT22;63185;45.642;13.764;2023-07-13T05:45:57;29.50;51.50
74657;DHT22;63185;45.642;13.764;2023-07-13T05:48:23;29.50;51.90
74657;DHT22;63185;45.642;13.764;2023-07-13T05:50:49;29.60;51.00
74657;DHT22;63185;45.642;13.764;2023-07-13T05:53:15;29.70;51.10
74657;DHT22;63185;45.642;13.764;2023-07-13T05:55:45;29.80;50.60
74657;DHT22;63185;45.642;13.764;2023-07-13T05:58:13;29.80;50.90
74657;DHT22;63185;45.642;13.764;2023-07-13T06:00:39;30.00;50.70
74657;DHT22;63185;45.642;13.764;2023-07-13T06:03:06;30.10;50.90
74657;DHT22;63185;45.642;13.764;2023-07-13T06:05:33;30.30;50.40
74657;DHT22;63185;45.642;13.764;2023-07-13T06:07:59;30.40;50.20
74657;DHT22;63185;45.642;13.764;2023-07-13T06:10:25;30.40;50.30
74657;DHT22;63185;45.642;13.764;2023-07-13T06:12:51;30.40;50.40
74657;DHT22;63185;45.642;13.764;2023-07-13T06:15:17;30.40;50.40
74657;DHT22;63185;45.642;13.764;2023-07-13T06:17:43;30.20;50.60
74657;DHT22;63185;45.642;13.764;2023-07-13T06:20:09;30.10;51.00
74657;DHT22;63185;45.642;13.764;2023-07-13T06:22:35;30.20;50.80
74657;DHT22;63185;45.642;13.764;2023-07-13T06:25:01;30.20;50.70
74657;DHT22;63185;45.642;13.764;2023-07-13T06:27:26;30.20;50.70
74657;DHT22;63185;45.642;13.764;2023-07-13T06:29:52;30.20;51.10
74657;DHT22;63185;45.642;13.764;2023-07-13T06:32:18;30.30;50.70
74657;DHT22;63185;45.642;13.764;2023-07-13T06:34:43;30.50;50.90
74657;DHT22;63185;45.642;13.764;2023-07-13T06:37:09;30.50;50.80
74657;DHT22;63185;45.642;13.764;2023-07-13T06:39:35;30.60;50.50
74657;DHT22;63185;45.642;13.764;2023-07-13T06:42:01;30.90;50.00
74657;DHT22;63185;45.642;13.764;2023-07-13T06:44:26;31.10;49.50
74657;DHT22;63185;45.642;13.764;2023-07-13T06:46:52;31.30;49.40
74657;DHT22;63185;45.642;13.764;2023-07-13T06:49:18;31.40;48.80
74657;DHT22;63185;45.642;13.764;2023-07-13T06:51:43;31.50;48.80
74657;DHT22;63185;45.642;13.764;2023-07-13T06:54:09;31.40;49.40
74657;DHT22;63185;45.642;13.764;2023-07-13T06:56:35;31.30;49.50
74657;DHT22;63185;45.642;13.764;2023-07-13T06:59:00;31.40;49.80
74657;DHT22;63185;45.642;13.764;2023-07-13T07:01:26;31.50;49.80
74657;DHT22;63185;45.642;13.764;2023-07-13T07:03:52;31.50;50.10
74657;DHT22;63185;45.642;13.764;2023-07-13T07:06:20;31.60;49.90
74657;DHT22;63185;45.642;13.764;2023-07-13T07:08:49;31.60;49.70
74657;DHT22;63185;45.642;13.764;2023-07-13T07:11:21;31.60;49.00
74657;DHT22;63185;45.642;13.764;2023-07-13T07:13:48;31.40;49.50
74657;DHT22;63185;45.642;13.764;2023-07-13T07:16:15;31.60;49.80
74657;DHT22;63185;45.642;13.764;2023-07-13T07:18:41;31.60;49.10
74657;DHT22;63185;45.642;13.764;2023-07-13T07:21:07;31.80;49.40
74657;DHT22;63185;45.642;13.764;2023-07-13T07:23:33;32.00;49.40
74657;DHT22;63185;45.642;13.764;2023-07-13T07:25:58;32.10;49.10
74657;DHT22;63185;45.642;13.764;2023-07-13T07:28:25;32.30;48.70
74657;DHT22;63185;45.642;13.764;2023-07-13T07:30:53;32.40;48.90
74657;DHT22;63185;45.642;13.764;2023-07-13T07:33:19;32.30;48.90
74657;DHT22;63185;45.642;13.764;2023-07-13T07:35:45;32.20;48.90
74657;DHT22;63185;45.642;13.764;2023-07-13T07:38:11;32.10;48.90
74657;DHT22;63185;45.642;13.764;2023-07-13T07:40:40;32.20;49.00
74657;DHT22;63185;45.642;13.764;2023-07-13T07:43:10;32.40;49.00
74657;DHT22;63185;45.642;13.764;2023-07-13T07:45:37;32.40;49.10
74657;DHT22;63185;45.642;13.764;2023-07-13T07:48:04;32.50;49.00
74657;DHT22;63185;45.642;13.764;2023-07-13T07:50:31;32.60;49.10
74657;DHT22;63185;45.642;13.764;2023-07-13T07:52:57;32.70;49.10
74657;DHT22;63185;45.642;13.764;2023-07-13T07:55:24;32.80;49.00
74657;DHT22;63185;45.642;13.764;2023-07-13T07:57:51;33.00;48.20
74657;DHT22;63185;45.642;13.764;2023-07-13T08:00:17;33.10;48.80
74657;DHT22;63185;45.642;13.764;2023-07-13T08:02:44;33.10;48.70
74657;DHT22;63185;45.642;13.764;2023-07-13T08:05:10;33.30;48.80
74657;DHT22;63185;45.642;13.764;2023-07-13T08:07:37;33.10;48.50
74657;DHT22;63185;45.642;13.764;2023-07-13T08:10:04;33.40;48.70
74657;DHT22;63185;45.642;13.764;2023-07-13T08:12:34;33.40;48.20
74657;DHT22;63185;45.642;13.764;2023-07-13T08:15:00;33.30;48.10
74657;DHT22;63185;45.642;13.764;2023-07-13T08:17:26;33.30;49.00
74657;DHT22;63185;45.642;13.764;2023-07-13T08:19:52;33.30;48.60
74657;DHT22;63185;45.642;13.764;2023-07-13T08:22:18;33.10;49.20
74657;DHT22;63185;45.642;13.764;2023-07-13T08:24:44;33.20;48.50
74657;DHT22;63185;45.642;13.764;2023-07-13T08:27:13;33.10;48.70
74657;DHT22;63185;45.642;13.764;2023-07-13T08:29:39;32.90;49.60
74657;DHT22;63185;45.642;13.764;2023-07-13T08:32:06;33.10;49.30
74657;DHT22;63185;45.642;13.764;2023-07-13T08:34:35;33.20;48.00
74657;DHT22;63185;45.642;13.764;2023-07-13T08:37:01;33.30;48.40
74657;DHT22;63185;45.642;13.764;2023-07-13T08:39:29;33.10;50.00
74657;DHT22;63185;45.642;13.764;2023-07-13T08:42:02;33.40;47.70
74657;DHT22;63185;45.642;13.764;2023-07-13T08:47:24;33.10;47.40
74657;DHT22;63185;45.642;13.764;2023-07-13T08:49:50;32.80;49.70
74657;DHT22;63185;45.642;13.764;2023-07-13T08:52:40;32.70;49.70
74657;DHT22;63185;45.642;13.764;2023-07-13T08:55:27;32.40;50.30
74657;DHT22;63185;45.642;13.764;2023-07-13T08:58:09;32.60;49.60
74657;DHT22;63185;45.642;13.764;2023-07-13T09:03:23;33.20;49.30
74657;DHT22;63185;45.642;13.764;2023-07-13T09:05:56;33.30;49.20
74657;DHT22;63185;45.642;13.764;2023-07-13T09:08:48;33.60;48.30
74657;DHT22;63185;45.642;13.764;2023-07-13T09:16:39;33.50;51.00
74657;DHT22;63185;45.642;13.764;2023-07-13T09:19:08;33.20;49.10
74657;DHT22;63185;45.642;13.764;2023-07-13T09:21:41;32.90;48.40
74657;DHT22;63185;45.642;13.764;2023-07-13T09:26:56;32.50;50.00
74657;DHT22;63185;45.642;13.764;2023-07-13T09:29:32;31.90;51.20
74657;DHT22;63185;45.642;13.764;2023-07-13T09:32:02;31.90;51.70
74657;DHT22;63185;45.642;13.764;2023-07-13T09:34:29;31.70;53.10
74657;DHT22;63185;45.642;13.764;2023-07-13T09:36:56;31.70;53.10
74657;DHT22;63185;45.642;13.764;2023-07-13T09:39:29;31.40;53.00
74657;DHT22;63185;45.642;13.764;2023-07-13T09:44:59;30.90;54.30
74657;DHT22;63185;45.642;13.764;2023-07-13T09:47:31;30.70;56.10
74657;DHT22;63185;45.642;13.764;2023-07-13T09:50:03;30.40;58.20
74657;DHT22;63185;45.642;13.764;2023-07-13T09:52:47;30.10;59.50
74657;DHT22;63185;45.642;13.764;2023-07-13T09:55:37;30.30;59.30
74657;DHT22;63185;45.642;13.764;2023-07-13T09:58:24;30.40;59.10
74657;DHT22;63185;45.642;13.764;2023-07-13T10:01:02;30.50;57.60
74657;DHT22;63185;45.642;13.764;2023-07-13T10:03:32;30.60;56.20
74657;DHT22;63185;45.642;13.764;2023-07-13T10:06:15;30.80;55.70
74657;DHT22;63185;45.642;13.764;2023-07-13T10:08:41;30.90;53.80
74657;DHT22;63185;45.642;13.764;2023-07-13T10:11:30;30.90;54.20
74657;DHT22;63185;45.642;13.764;2023-07-13T10:14:10;31.10;54.10
74657;DHT22;63185;45.642;13.764;2023-07-13T10:16:37;31.10;53.20
74657;DHT22;63185;45.642;13.764;2023-07-13T10:19:10;31.20;53.50
74657;DHT22;63185;45.642;13.764;2023-07-13T10:21:56;31.40;53.20
74657;DHT22;63185;45.642;13.764;2023-07-13T10:24:27;31.40;52.70
74657;DHT22;63185;45.642;13.764;2023-07-13T10:29:32;31.70;52.50
74657;DHT22;63185;45.642;13.764;2023-07-13T10:32:00;31.90;52.40
74657;DHT22;63185;45.642;13.764;2023-07-13T10:34:26;31.90;52.50
74657;DHT22;63185;45.642;13.764;2023-07-13T10:36:53;32.00;52.20
74657;DHT22;63185;45.642;13.764;2023-07-13T10:39:23;32.00;51.40
74657;DHT22;63185;45.642;13.764;2023-07-13T10:41:54;32.10;52.30
74657;DHT22;63185;45.642;13.764;2023-07-13T10:44:26;31.90;52.70
74657;DHT22;63185;45.642;13.764;2023-07-13T10:46:58;31.90;51.40
74657;DHT22;63185;45.642;13.764;2023-07-13T10:49:27;31.70;52.00
74657;DHT22;63185;45.642;13.764;2023-07-13T10:51:53;31.70;52.60
74657;DHT22;63185;45.642;13.764;2023-07-13T10:57:10;32.10;51.90
74657;DHT22;63185;45.642;13.764;2023-07-13T10:59:40;32.10;52.30
74657;DHT22;63185;45.642;13.764;2023-07-13T11:02:15;31.80;52.60
74657;DHT22;63185;45.642;13.764;2023-07-13T11:04:47;31.80;53.80
74657;DHT22;63185;45.642;13.764;2023-07-13T11:07:23;31.30;55.60
74657;DHT22;63185;45.642;13.764;2023-07-13T11:09:54;31.10;56.60
74657;DHT22;63185;45.642;13.764;2023-07-13T11:17:33;31.60;55.30
74657;DHT22;63185;45.642;13.764;2023-07-13T11:23:44;32.60;53.50
74657;DHT22;63185;45.642;13.764;2023-07-13T11:25:38;33.10;52.10
74657;DHT22;63185;45.642;13.764;2023-07-13T11:33:23;33.90;51.50
74657;DHT22;63185;45.642;13.764;2023-07-13T11:36:07;33.50;52.20
74657;DHT22;63185;45.642;13.764;2023-07-13T11:38:43;33.30;52.80
74657;DHT22;63185;45.642;13.764;2023-07-13T11:41:15;33.40;52.80
74657;DHT22;63185;45.642;13.764;2023-07-13T11:43:41;33.60;53.10
74657;DHT22;63185;45.642;13.764;2023-07-13T11:46:22;33.60;53.10
74657;DHT22;63185;45.642;13.764;2023-07-13T11:48:49;33.40;53.40
74657;DHT22;63185;45.642;13.764;2023-07-13T11:51:36;33.10;54.20
74657;DHT22;63185;45.642;13.764;2023-07-13T11:54:13;32.30;56.10
74657;DHT22;63185;45.642;13.764;2023-07-13T11:56:41;31.70;56.70
74657;DHT22;63185;45.642;13.764;2023-07-13T11:59:10;31.10;58.80
74657;DHT22;63185;45.642;13.764;2023-07-13T12:01:43;30.60;60.20
74657;DHT22;63185;45.642;13.764;2023-07-13T12:04:26;30.30;60.30
74657;DHT22;63185;45.642;13.764;2023-07-13T12:06:58;30.10;62.40
74657;DHT22;63185;45.642;13.764;2023-07-13T12:09:28;29.60;63.90
74657;DHT22;63185;45.642;13.764;2023-07-13T12:11:56;29.70;64.80
74657;DHT22;63185;45.642;13.764;2023-07-13T12:14:22;30.00;64.80
74657;DHT22;63185;45.642;13.764;2023-07-13T12:16:50;30.30;63.80
74657;DHT22;63185;45.642;13.764;2023-07-13T12:19:22;30.60;62.60
74657;DHT22;63185;45.642;13.764;2023-07-13T12:21:48;31.00;60.90
74657;DHT22;63185;45.642;13.764;2023-07-13T12:24:19;31.20;60.40
74657;DHT22;63185;45.642;13.764;2023-07-13T12:27:33;31.10;61.00
74657;DHT22;63185;45.642;13.764;2023-07-13T12:29:39;31.00;61.80
74657;DHT22;63185;45.642;13.764;2023-07-13T12:32:09;30.60;61.60
74657;DHT22;63185;45.642;13.764;2023-07-13T12:34:56;30.20;62.80
74657;DHT22;63185;45.642;13.764;2023-07-13T12:37:22;30.00;64.00
74657;DHT22;63185;45.642;13.764;2023-07-13T12:39:49;30.20;63.40
74657;DHT22;63185;45.642;13.764;2023-07-13T12:44:49;30.20;63.70
74657;DHT22;63185;45.642;13.764;2023-07-13T12:47:15;30.50;63.10
74657;DHT22;63185;45.642;13.764;2023-07-13T12:49:57;31.10;63.10
74657;DHT22;63185;45.642;13.764;2023-07-13T12:52:31;31.30;57.90
74657;DHT22;63185;45.642;13.764;2023-07-13T12:55:07;31.60;54.70
74657;DHT22;63185;45.642;13.764;2023-07-13T12:57:54;32.00;51.80
74657;DHT22;63185;45.642;13.764;2023-07-13T13:00:25;32.10;50.30
74657;DHT22;63185;45.642;13.764;2023-07-13T13:02:56;32.20;50.30
74657;DHT22;63185;45.642;13.764;2023-07-13T13:05:26;32.20;51.50
74657;DHT22;63185;45.642;13.764;2023-07-13T13:07:52;32.30;52.50
74657;DHT22;63185;45.642;13.764;2023-07-13T13:10:18;32.60;53.40
74657;DHT22;63185;45.642;13.764;2023-07-13T13:12:44;33.00;54.40
74657;DHT22;63185;45.642;13.764;2023-07-13T13:15:12;33.30;53.40
74657;DHT22;63185;45.642;13.764;2023-07-13T13:17:38;33.60;52.80
74657;DHT22;63185;45.642;13.764;2023-07-13T13:20:19;33.80;53.10
74657;DHT22;63185;45.642;13.764;2023-07-13T13:22:45;34.00;53.10
74657;DHT22;63185;45.642;13.764;2023-07-13T13:25:12;34.20;51.60
74657;DHT22;63185;45.642;13.764;2023-07-13T13:27:40;34.20;51.60
74657;DHT22;63185;45.642;13.764;2023-07-13T13:30:13;34.10;51.10
74657;DHT22;63185;45.642;13.764;2023-07-13T13:32:45;34.10;51.30
74657;DHT22;63185;45.642;13.764;2023-07-13T13:35:20;34.10;51.70
74657;DHT22;63185;45.642;13.764;2023-07-13T13:37:47;34.20;51.90
74657;DHT22;63185;45.642;13.764;2023-07-13T13:40:23;34.10;52.30
74657;DHT22;63185;45.642;13.764;2023-07-13T13:42:49;33.90;53.30
74657;DHT22;63185;45.642;13.764;2023-07-13T13:45:15;34.10;53.90
74657;DHT22;63185;45.642;13.764;2023-07-13T13:47:44;34.00;53.70
74657;DHT22;63185;45.642;13.764;2023-07-13T13:52:38;34.80;52.80
74657;DHT22;63185;45.642;13.764;2023-07-13T13:55:15;35.00;51.60
74657;DHT22;63185;45.642;13.764;2023-07-13T13:57:41;35.10;51.20
74657;DHT22;63185;45.642;13.764;2023-07-13T14:00:09;35.20;52.00
74657;DHT22;63185;45.642;13.764;2023-07-13T14:02:46;35.30;51.80
74657;DHT22;63185;45.642;13.764;2023-07-13T14:05:22;35.60;51.30
74657;DHT22;63185;45.642;13.764;2023-07-13T14:07:48;36.00;50.40
74657;DHT22;63185;45.642;13.764;2023-07-13T14:10:16;35.80;49.80
74657;DHT22;63185;45.642;13.764;2023-07-13T14:12:44;35.60;50.30
74657;DHT22;63185;45.642;13.764;2023-07-13T14:15:31;35.00;51.90
74657;DHT22;63185;45.642;13.764;2023-07-13T14:17:57;34.50;53.30
74657;DHT22;63185;45.642;13.764;2023-07-13T14:20:24;34.50;53.70
74657;DHT22;63185;45.642;13.764;2023-07-13T14:22:52;34.50;53.80
74657;DHT22;63185;45.642;13.764;2023-07-13T14:25:19;34.50;54.60
74657;DHT22;63185;45.642;13.764;2023-07-13T14:27:48;34.70;53.60
74657;DHT22;63185;45.642;13.764;2023-07-13T14:30:17;34.90;53.70
74657;DHT22;63185;45.642;13.764;2023-07-13T14:32:43;35.20;53.50
74657;DHT22;63185;45.642;13.764;2023-07-13T14:35:19;35.80;51.90
74657;DHT22;63185;45.642;13.764;2023-07-13T14:37:47;36.00;50.60
74657;DHT22;63185;45.642;13.764;2023-07-13T14:40:19;36.10;50.90
74657;DHT22;63185;45.642;13.764;2023-07-13T14:42:47;36.20;50.40
74657;DHT22;63185;45.642;13.764;2023-07-13T14:45:18;36.10;50.10
74657;DHT22;63185;45.642;13.764;2023-07-13T14:47:45;36.40;49.80
74657;DHT22;63185;45.642;13.764;2023-07-13T14:50:19;36.40;49.10
74657;DHT22;63185;45.642;13.764;2023-07-13T14:52:46;36.60;47.90
74657;DHT22;63185;45.642;13.764;2023-07-13T14:55:15;36.70;47.40
74657;DHT22;63185;45.642;13.764;2023-07-13T14:57:42;36.00;49.10
74657;DHT22;63185;45.642;13.764;2023-07-13T15:00:21;35.80;50.20
74657;DHT22;63185;45.642;13.764;2023-07-13T15:02:51;34.60;53.10
74657;DHT22;63185;45.642;13.764;2023-07-13T15:05:20;33.70;55.90
74657;DHT22;63185;45.642;13.764;2023-07-13T15:07:48;33.10;56.90
74657;DHT22;63185;45.642;13.764;2023-07-13T15:10:23;33.40;56.50
74657;DHT22;63185;45.642;13.764;2023-07-13T15:12:59;33.70;55.60
74657;DHT22;63185;45.642;13.764;2023-07-13T15:15:28;33.60;56.50
74657;DHT22;63185;45.642;13.764;2023-07-13T15:17:54;33.40;56.80
74657;DHT22;63185;45.642;13.764;2023-07-13T15:20:29;32.60;59.10
74657;DHT22;63185;45.642;13.764;2023-07-13T15:22:55;32.60;59.10
74657;DHT22;63185;45.642;13.764;2023-07-13T15:25:24;32.40;59.80
74657;DHT22;63185;45.642;13.764;2023-07-13T15:27:51;32.30;60.20
74657;DHT22;63185;45.642;13.764;2023-07-13T15:30:18;32.20;60.30
74657;DHT22;63185;45.642;13.764;2023-07-13T15:32:44;32.60;59.40
74657;DHT22;63185;45.642;13.764;2023-07-13T15:35:18;32.70;59.50
74657;DHT22;63185;45.642;13.764;2023-07-13T15:37:45;33.30;58.40
74657;DHT22;63185;45.642;13.764;2023-07-13T15:40:13;33.50;58.00
74657;DHT22;63185;45.642;13.764;2023-07-13T15:42:43;33.50;58.40
74657;DHT22;63185;45.642;13.764;2023-07-13T15:45:23;34.20;56.10
74657;DHT22;63185;45.642;13.764;2023-07-13T15:47:53;34.30;56.00
74657;DHT22;63185;45.642;13.764;2023-07-13T15:50:22;34.50;55.70
74657;DHT22;63185;45.642;13.764;2023-07-13T15:52:51;34.40;55.90
74657;DHT22;63185;45.642;13.764;2023-07-13T15:55:17;34.50;55.30
74657;DHT22;63185;45.642;13.764;2023-07-13T15:57:52;33.60;57.80
74657;DHT22;63185;45.642;13.764;2023-07-13T16:00:23;32.90;58.90
74657;DHT22;63185;45.642;13.764;2023-07-13T16:02:50;33.00;59.70
74657;DHT22;63185;45.642;13.764;2023-07-13T16:05:16;34.10;56.30
74657;DHT22;63185;45.642;13.764;2023-07-13T16:07:44;35.60;52.50
74657;DHT22;63185;45.642;13.764;2023-07-13T16:10:17;35.10;53.50